Delta, Utah Weather observations

Data are for observation ending at time listed.
 Day   Time    Ave.   Ave.  Ave.  Vector   Max.   Stn.    Total    Solar   Ave.  
  of    of     Air    Rel.  Wind   Wind    Wind   Baro.  Precip.   Rad.    Soil  
Year   Day     Temp.  Hum.  Speed  Dir.    Gust   Pres.                    Temp. 
2014   (MST)    F      %     mph   deg.    mph     mb.     in.     W/m2     F   
------------------------------------------------------------------------------
 209    6:00   72.3    50    4.7   194      8.3   865.6    0.00       6    99999.0
 209    6:10   72.6    49    3.5   192      6.3   865.7    0.00       6    99999.0
 209    6:20   72.2    51    2.5   184      5.0   865.8    0.00       6    99999.0
 209    6:30   71.6    54    2.6   182      4.2   865.9    0.00       6    99999.0
 209    6:40   71.5    54    3.2   187      5.5   865.9    0.00       9    99999.0
 209    6:50   71.1    55    2.7   182      4.5   866.0    0.00      10    99999.0
 209    7:00   70.9    56    2.2   168      4.3   866.0    0.00      14    99999.0
 209    7:10   70.3    61    2.1   132      3.3   866.2    0.00      18    99999.0
 209    7:20   69.4    65    1.6   126      3.1   866.2    0.00      27    99999.0
 209    7:30   69.6    66    0.5   110      1.6   866.3    0.00      35    99999.0
 209    7:40   69.8    68    0.3   120      1.6   866.5    0.00      41    99999.0
 209    7:50   69.8    70    0.2   118      1.5   866.5    0.00      50    99999.0
 209    8:00   69.4    72    0.2   166      1.5   866.5    0.00      57    99999.0
 209    8:10   69.3    74    0.9   109      2.3   866.4    0.01      73    99999.0
 209    8:20   69.3    75    1.8   128      3.2   866.4    0.00      89    99999.0
 209    8:30   69.6    74    1.5   124      2.3   866.3    0.00      95    99999.0
 209    8:40   70.2    71    1.2   114      2.0   866.2    0.00      96    99999.0
 209    8:50   70.9    68    0.4   106      1.5   866.1    0.00     110    99999.0
 209    9:00   71.7    66    0.7    47      1.9   866.0    0.00     156    99999.0
 209    9:10   73.0    63    0.4   349      1.8   865.9    0.00     179    99999.0
 209    9:20   73.8    61    0.6   302      1.8   865.9    0.00     197    99999.0
 209    9:30   74.8    59    0.3   312      2.1   865.9    0.00     174    99999.0
 209    9:40   75.1    59    1.5   331      2.6   865.9    0.00     189    99999.0
 209    9:50   75.2    60    1.1   293      2.6   865.9    0.00     201    99999.0
 209   10:00   75.2    56    1.1   238      2.7   866.0    0.00     254    99999.0
 209   10:10   76.2    54    1.9   238      3.4   865.9    0.00     569    99999.0
 209   10:20   78.5    49    1.6   254      4.8   865.9    0.00     740    99999.0
 209   10:30   79.8    44    2.1   236      4.2   866.0    0.00     706    99999.0
 209   10:40   80.7    41    1.3   218      4.5   866.0    0.00     722    99999.0
 209   10:50   81.5    40    1.8   213      4.2   866.0    0.00     729    99999.0
 209   11:00   80.9    38    2.3   214      5.6   866.0    0.00     621    99999.0
 209   11:10   81.4    37    1.9   233      4.5   866.0    0.00     668    99999.0
 209   11:20   82.6    37    2.0   182      4.0   865.9    0.00     767    99999.0
 209   11:30   82.8    33    2.4   116      5.3   865.8    0.00     747    99999.0
 209   11:40   83.3    34    1.5    40      3.8   865.8    0.00     731    99999.0
 209   11:50   84.0    35    2.1   114      4.8   865.7    0.00     777    99999.0
 209   12:00   84.6    34    2.0   263      5.6   865.5    0.00     782    99999.0
 209   12:10   84.9    32    2.2   311      6.3   865.3    0.00     760    99999.0
 209   12:20   86.1    31    1.2   147      5.7   865.2    0.00     762    99999.0
 209   12:30   85.8    29    1.6   146      4.3   865.1    0.00     765    99999.0
 209   12:40   85.7    29    3.0   177      7.2   864.9    0.00     776    99999.0
 209   12:50   86.3    28    2.5   190      6.4   864.8    0.00     590    99999.0
 209   13:00   84.7    29    3.4   174      6.0   864.8    0.00      64    99999.0
 209   13:10   83.7    31    3.4   150      7.5   864.8    0.00      55    99999.0
 209   13:20   77.6    54    5.9   132     12.1   865.0    0.00      59    99999.0
 209   13:30   72.1    72    6.2   128     12.1   865.4    0.03     106    99999.0
 209   13:40   71.5    74    2.5    95      6.9   865.5    0.00     280    99999.0
 209   13:50   73.3    73    3.5    81      7.8   865.4    0.00     241    99999.0
 209   14:00   74.3    68    3.9   111      8.3   865.4    0.00     337    99999.0
 209   14:10   75.7    62    4.9   123      9.9   865.4    0.00     218    99999.0
 209   14:20   77.6    55    4.6   128      8.8   865.4    0.00     235    99999.0
 209   14:30   78.7    50    5.0   131      8.6   865.4    0.00     244    99999.0
 209   14:40   78.6    47    6.6   141     10.4   865.4    0.00     222    99999.0
 209   14:50   78.3    46    6.4   150     10.8   865.3    0.00     192    99999.0
 209   15:00   77.6    48    5.7   141      9.3   865.2    0.00     142    99999.0
 209   15:10   76.6    51    5.1   142      8.4   865.1    0.00     171    99999.0
 209   15:20   77.4    48    4.4   132      7.1   864.9    0.00     236    99999.0
 209   15:30   78.7    45    4.2   130      7.8   864.8    0.00     213    99999.0
 209   15:40   79.2    43    4.7   132      8.3   864.7    0.00     201    99999.0
 209   15:50   79.8    42    4.6   131      8.1   864.5    0.00     200    99999.0
 209   16:00   80.4    39    5.0   140      9.3   864.4    0.00     207    99999.0
 209   16:10   81.0    38    4.6   144      8.3   864.3    0.00     244    99999.0
 209   16:20   80.9    38    4.6   140      7.9   864.2    0.00     188    99999.0
 209   16:30   80.9    37    4.6   139      8.0   864.1    0.00     176    99999.0
 209   16:40   81.1    36    4.3   131      7.8   864.0    0.00     179    99999.0
 209   16:50   81.5    36    4.1   139      7.2   863.9    0.00     177    99999.0
 209   17:00   81.7    34    3.9   154      7.7   863.9    0.00     143    99999.0
 209   17:10   81.8    33    3.3   165      5.6   863.9    0.00     115    99999.0
 209   17:20   81.4    34    2.8   165      5.1   863.8    0.00      92    99999.0
 209   17:30   81.5    33    3.2   149      5.6   863.7    0.00      81    99999.0
 209   17:40   81.8    33    2.5   151      4.5   863.7    0.00     130    99999.0
 209   17:50   82.3    33    3.0   134      5.6   863.6    0.00     153    99999.0
 209   18:00   82.5    33    3.6   148      6.4   863.6    0.00     132    99999.0
 209   18:10   81.8    34    3.9   144      6.6   863.7    0.00      86    99999.0
 209   18:20   81.5    34    2.9   161      5.6   863.7    0.00      72    99999.0
 209   18:30   81.1    36    2.3   149      3.8   863.7    0.00      42    99999.0
 209   18:40   80.9    36    1.3   323      4.0   863.9    0.00      38    99999.0
 209   18:50   78.8    42    3.4   340      6.9   863.9    0.00      33    99999.0
 209   19:00   77.5    44    3.7     6      8.8   863.8    0.00      24    99999.0
 209   19:10   77.1    44    4.4   354      8.1   863.8    0.00      15    99999.0
 209   19:20   77.1    44    2.2   355      4.2   864.0    0.00      12    99999.0
 209   19:30   76.9    45    1.2   312      3.8   864.2    0.00      10    99999.0
 209   19:40   76.8    45    1.0   357      2.5   864.3    0.00       4    99999.0
 209   19:50   76.6    44    1.8    32      3.7   864.3    0.00       0    99999.0
 209   20:00   77.3    42    2.5     3      4.5   864.4    0.00       0    99999.0
 209   20:10   77.8    40    2.0     2      4.1   864.3    0.00       0    99999.0
 209   20:20   77.4    41    2.6     7      5.0   864.3    0.00       0    99999.0
 209   20:30   76.8    41    2.4     8      4.8   864.4    0.00       0    99999.0
 209   20:40   76.3    43    3.2   360      4.9   864.5    0.00       0    99999.0
 209   20:50   75.5    46    2.9   357      5.6   864.5    0.00       0    99999.0
 209   21:00   75.5    46    2.5    23      5.3   864.5    0.00       0    99999.0
 209   21:10   75.4    45    2.9     6      5.8   864.5    0.00       0    99999.0
 209   21:20   75.2    45    1.1    59      3.1   864.6    0.00       0    99999.0
 209   21:30   74.9    48    1.9   152      3.6   864.7    0.00       0    99999.0
 209   21:40   74.7    47    0.1   175      0.9   864.8    0.00       0    99999.0
 209   21:50   74.3    49    0.4   157      2.0   864.7    0.00       0    99999.0
 209   22:00   74.6    48    0.2   167      0.9   864.7    0.00       0    99999.0
 209   22:10   74.5    49    1.0   212      2.9   864.8    0.00       0    99999.0
 209   22:20   73.3    52    1.6   238      2.7   864.8    0.00       0    99999.0
 209   22:30   72.5    55    0.9   237      2.1   864.8    0.00       0    99999.0
 209   22:40   71.9    58    1.3   157      4.4   864.9    0.00       0    99999.0
 209   22:50   71.1    59    1.0   208      2.9   864.9    0.00       0    99999.0
 209   23:00   71.1    60    0.1   217      0.7   864.8    0.00       0    99999.0
 209   23:10   70.9    60    0.0   220      0.7   864.8    0.00       0    99999.0
 209   23:20   70.8    60    0.4   316      2.0   864.8    0.00       0    99999.0
 209   23:30   70.6    59    1.9   349      3.4   864.7    0.00       0    99999.0
 209   23:40   69.7    61    1.3   331      2.6   864.7    0.00       0    99999.0
 209   23:50   69.1    63    1.3   344      3.6   864.7    0.00       0    99999.0
 210    0:00   68.6    64    0.4   134      1.9   864.7    0.00       0    99999.0
 210    0:10   68.5    65    0.9   327      1.9   864.6    0.00       0    99999.0
 210    0:20   68.3    64    0.3   262      2.7   864.6    0.00       0    99999.0
 210    0:30   68.6    64    1.0   333      2.3   864.5    0.00       0    99999.0
 210    0:40   68.6    63    2.0     0      3.1   864.4    0.00       0    99999.0
 210    0:50   68.5    64    1.9   352      3.0   864.4    0.00       0    99999.0
 210    1:00   68.1    66    1.4   341      2.9   864.3    0.00       0    99999.0
 210    1:10   67.9    68    0.0   337      0.9   864.2    0.00       0    99999.0
 210    1:20   67.5    68    0.0     0      0.0   864.2    0.00       0    99999.0
 210    1:30   67.4    69    0.9    51      3.4   864.2    0.00       0    99999.0
 210    1:40   67.6    67    0.9   320      2.0   864.2    0.00       0    99999.0
 210    1:50   67.6    66    1.3   343      2.4   864.1    0.00       0    99999.0
 210    2:00   66.4    68    2.2   343      3.7   864.1    0.00       0    99999.0
 210    2:10   66.1    67    1.7   339      3.9   864.0    0.00       0    99999.0
 210    2:20   66.7    66    0.4   333      2.9   864.0    0.00       0    99999.0
 210    2:30   67.5    66    1.0   311      2.0   863.9    0.00       0    99999.0
 210    2:40   67.7    65    0.9   315      2.0   863.9    0.00       0    99999.0
 210    2:50   67.6    66    0.2   308      0.9   863.9    0.00       0    99999.0
 210    3:00   67.1    68    0.0   308      0.5   864.0    0.00       0    99999.0
 210    3:10   67.0    69    0.0     0      0.0   864.0    0.00       0    99999.0
 210    3:20   67.0    69    1.0   297      2.2   864.1    0.00       0    99999.0
 210    3:30   66.1    72    1.5   326      2.9   864.1    0.00       0    99999.0
 210    3:40   65.6    72    0.9   316      3.1   864.1    0.00       0    99999.0
 210    3:50   65.2    71    1.2   326      2.9   864.1    0.00       0    99999.0
 210    4:00   65.0    71    0.8   328      2.1   864.2    0.00       0    99999.0
 210    4:10   64.5    73    0.1   173      0.7   864.2    0.00       0    99999.0
 210    4:20   64.0    74    0.1   335      1.2   864.3    0.00       0    99999.0
 210    4:30   63.9    75    0.3    12      1.4   864.3    0.00       0    99999.0
 210    4:40   63.6    76    0.2   143      1.3   864.3    0.00       0    99999.0
 210    4:50   63.6    76    0.5    64      1.7   864.4    0.00       0    99999.0
 210    5:00   63.5    76    0.3   116      1.4   864.5    0.00       0    99999.0
 210    5:10   63.1    77    0.0     0      0.0   864.5    0.00       0    99999.0
 210    5:20   62.9    78    0.0   139      0.3   864.4    0.00       0    99999.0
 210    5:30   62.8    79    0.1   138      1.1   864.4    0.00       2    99999.0
 210    5:40   62.7    79    0.0     0      0.0   864.4    0.00       3    99999.0
 210    5:50   62.8    79    0.0   157      0.6   864.5    0.00       7    99999.0

Return to Delta, Utah graphs page.


Western Regional Climate Center,wrcc@dri.edu